createdAt,value
2019-05-26T00:00:30.616Z,15.92
2019-05-26T00:01:30.598Z,15.92
2019-05-26T00:02:30.559Z,15.93
2019-05-26T00:03:30.594Z,15.91
2019-05-26T00:04:30.570Z,15.59
2019-05-26T00:05:30.553Z,15.79
2019-05-26T00:06:30.613Z,16.07
2019-05-26T00:07:31.040Z,16.03
2019-05-26T00:08:30.575Z,16.14
2019-05-26T00:09:30.611Z,16.32
2019-05-26T00:10:30.568Z,16.38
2019-05-26T00:11:30.612Z,16.43
2019-05-26T00:12:30.610Z,16.44
2019-05-26T00:13:30.587Z,16.45
2019-05-26T00:14:30.613Z,16.40
2019-05-26T00:15:30.604Z,16.39
2019-05-26T00:16:30.590Z,16.25
2019-05-26T00:17:30.599Z,16.21
2019-05-26T00:18:33.237Z,16.35
2019-05-26T00:19:30.621Z,16.27
2019-05-26T00:20:30.559Z,15.90
2019-05-26T00:21:30.616Z,16.20
2019-05-26T00:22:30.580Z,16.01
2019-05-26T00:23:30.638Z,16.28
2019-05-26T00:24:30.640Z,16.36
2019-05-26T00:25:30.610Z,16.42
2019-05-26T00:26:30.583Z,16.31
2019-05-26T00:27:30.609Z,16.22
2019-05-26T00:28:30.593Z,16.03
2019-05-26T00:29:30.598Z,15.76
2019-05-26T00:30:30.634Z,15.86
2019-05-26T00:31:30.637Z,16.10
2019-05-26T00:32:30.591Z,16.22
2019-05-26T00:33:30.616Z,16.09
2019-05-26T00:34:30.592Z,16.15
2019-05-26T00:35:30.580Z,16.11
2019-05-26T00:36:30.641Z,15.86
2019-05-26T00:37:45.683Z,15.85
2019-05-26T00:38:30.591Z,16.07
2019-05-26T00:39:30.629Z,16.26
2019-05-26T00:40:30.597Z,16.19
2019-05-26T00:41:30.631Z,16.14
2019-05-26T00:42:30.651Z,16.12
2019-05-26T00:43:30.648Z,15.81
2019-05-26T00:44:30.590Z,16.14
2019-05-26T00:45:30.620Z,16.07
2019-05-26T00:46:30.609Z,16.13
2019-05-26T00:47:30.592Z,15.95
2019-05-26T00:48:30.643Z,15.94
2019-05-26T00:49:30.655Z,15.90
2019-05-26T00:50:30.582Z,16.07
2019-05-26T00:51:30.639Z,15.71
2019-05-26T00:52:30.615Z,15.92
2019-05-26T00:53:30.595Z,16.00
2019-05-26T00:54:30.668Z,15.90
2019-05-26T00:55:30.650Z,15.96
2019-05-26T00:56:30.598Z,15.92
2019-05-26T00:57:30.655Z,15.96
2019-05-26T00:58:30.622Z,16.03
2019-05-26T00:59:30.627Z,16.02
2019-05-26T01:00:30.663Z,15.78
2019-05-26T01:01:30.632Z,15.80
2019-05-26T01:02:30.596Z,15.95
2019-05-26T01:03:30.657Z,15.85
2019-05-26T01:04:30.631Z,15.99
2019-05-26T01:05:30.630Z,15.76
2019-05-26T01:06:30.659Z,15.78
2019-05-26T01:07:30.634Z,15.77
2019-05-26T01:08:30.603Z,15.94
2019-05-26T01:09:30.653Z,16.13
2019-05-26T01:10:30.641Z,16.15
2019-05-26T01:11:30.624Z,15.86
2019-05-26T01:12:30.669Z,15.84
2019-05-26T01:13:30.666Z,15.60
2019-05-26T01:14:30.611Z,15.87
2019-05-26T01:15:30.655Z,16.15
2019-05-26T01:16:30.633Z,16.30
2019-05-26T01:17:30.630Z,15.90
2019-05-26T01:18:30.685Z,15.95
2019-05-26T01:19:30.654Z,16.13
2019-05-26T01:20:30.662Z,16.19
2019-05-26T01:21:30.657Z,16.12
2019-05-26T01:22:30.648Z,16.14
2019-05-26T01:23:30.609Z,16.19
2019-05-26T01:24:30.684Z,16.12
2019-05-26T01:25:30.673Z,15.72
2019-05-26T01:26:30.642Z,15.97
2019-05-26T01:27:30.660Z,15.74
2019-05-26T01:28:30.658Z,15.79
2019-05-26T01:29:30.651Z,15.75
2019-05-26T01:30:30.683Z,15.88
2019-05-26T01:31:30.665Z,15.90
2019-05-26T01:32:30.633Z,15.80
2019-05-26T01:33:30.674Z,15.78
2019-05-26T01:34:30.663Z,15.69
2019-05-26T01:35:30.638Z,15.67
2019-05-26T01:36:30.689Z,15.93
2019-05-26T01:37:30.678Z,15.96
2019-05-26T01:38:30.634Z,15.83
2019-05-26T01:39:30.692Z,15.71
2019-05-26T01:40:30.671Z,15.58
2019-05-26T01:41:30.668Z,15.48
2019-05-26T01:42:30.713Z,15.63
2019-05-26T01:43:30.672Z,15.87
2019-05-26T01:44:30.644Z,15.93
2019-05-26T01:45:30.685Z,15.96
2019-05-26T01:46:30.667Z,15.92
2019-05-26T01:47:30.631Z,15.75
2019-05-26T01:48:30.705Z,15.85
2019-05-26T01:49:30.688Z,15.98
2019-05-26T01:50:30.645Z,15.91
2019-05-26T01:51:30.682Z,15.86
2019-05-26T01:52:30.680Z,15.56
2019-05-26T01:53:30.684Z,15.69
2019-05-26T01:54:30.712Z,15.36
2019-05-26T01:55:30.698Z,15.12
2019-05-26T01:56:30.650Z,15.08
2019-05-26T01:57:30.695Z,15.33
2019-05-26T01:58:30.676Z,15.34
2019-05-26T01:59:30.676Z,15.40
2019-05-26T02:00:30.717Z,15.31
2019-05-26T02:01:30.691Z,15.39
2019-05-26T02:02:30.668Z,15.57
2019-05-26T02:03:30.685Z,15.51
2019-05-26T02:04:30.820Z,15.28
2019-05-26T02:05:30.712Z,15.16
2019-05-26T02:06:30.722Z,15.03
2019-05-26T02:07:30.726Z,15.19
2019-05-26T02:08:38.700Z,15.01
2019-05-26T02:09:30.689Z,15.03
2019-05-26T02:10:30.713Z,15.05
2019-05-26T02:11:30.706Z,15.42
2019-05-26T02:12:30.713Z,15.59
2019-05-26T02:13:30.732Z,15.65
2019-05-26T02:14:30.665Z,15.65
2019-05-26T02:15:30.702Z,15.58
2019-05-26T02:16:30.709Z,15.54
2019-05-26T02:17:30.675Z,15.64
2019-05-26T02:18:30.734Z,15.67
2019-05-26T02:19:30.697Z,15.73
2019-05-26T02:20:30.662Z,15.74
2019-05-26T02:21:30.722Z,15.37
2019-05-26T02:22:30.696Z,15.46
2019-05-26T02:23:30.671Z,15.63
2019-05-26T02:24:30.729Z,15.65
2019-05-26T02:25:30.722Z,15.71
2019-05-26T02:26:30.693Z,15.51
2019-05-26T02:27:30.719Z,15.07
2019-05-26T02:28:30.708Z,15.19
2019-05-26T02:29:30.673Z,15.09
2019-05-26T02:30:30.785Z,15.33
2019-05-26T02:31:30.721Z,15.40
2019-05-26T02:32:30.680Z,15.30
2019-05-26T02:33:30.714Z,15.51
2019-05-26T02:34:30.736Z,15.59
2019-05-26T02:35:30.681Z,15.77
2019-05-26T02:36:30.741Z,15.91
2019-05-26T02:37:30.733Z,15.98
2019-05-26T02:38:30.697Z,15.95
2019-05-26T02:39:30.738Z,15.89
2019-05-26T02:40:30.723Z,15.77
2019-05-26T02:41:30.722Z,15.76
2019-05-26T02:42:30.758Z,15.76
2019-05-26T02:43:30.729Z,15.75
2019-05-26T02:44:30.697Z,15.79
2019-05-26T02:45:30.733Z,15.76
2019-05-26T02:46:30.725Z,15.70
2019-05-26T02:47:30.730Z,15.65
2019-05-26T02:48:30.748Z,15.68
2019-05-26T02:49:30.742Z,15.75
2019-05-26T02:50:30.726Z,15.75
2019-05-26T02:51:30.736Z,15.57
2019-05-26T02:52:30.724Z,15.62
2019-05-26T02:53:30.729Z,15.66
2019-05-26T02:54:30.748Z,15.75
2019-05-26T02:55:30.734Z,15.74
2019-05-26T02:56:30.715Z,15.67
2019-05-26T02:57:30.739Z,15.50
2019-05-26T02:58:30.740Z,15.63
2019-05-26T02:59:30.730Z,15.76
2019-05-26T03:00:30.765Z,15.67
2019-05-26T03:01:30.736Z,15.79
2019-05-26T03:02:30.703Z,15.88
2019-05-26T03:03:30.751Z,15.96
2019-05-26T03:04:30.802Z,16.02
2019-05-26T03:05:30.746Z,15.93
2019-05-26T03:06:30.768Z,16.05
2019-05-26T03:07:30.761Z,16.01
2019-05-26T03:08:30.761Z,15.98
2019-05-26T03:09:30.763Z,15.90
2019-05-26T03:10:30.729Z,15.90
2019-05-26T03:11:30.743Z,15.65
2019-05-26T03:12:30.799Z,15.72
2019-05-26T03:13:30.765Z,15.81
2019-05-26T03:14:30.751Z,15.78
2019-05-26T03:15:30.755Z,15.70
2019-05-26T03:16:30.763Z,15.81
2019-05-26T03:17:30.750Z,15.82
2019-05-26T03:18:30.776Z,15.88
2019-05-26T03:19:30.752Z,15.64
2019-05-26T03:20:30.756Z,15.66
2019-05-26T03:21:30.765Z,15.62
2019-05-26T03:22:30.744Z,15.64
2019-05-26T03:23:30.742Z,15.54
2019-05-26T03:24:30.773Z,15.45
2019-05-26T03:25:30.764Z,15.23
2019-05-26T03:26:30.768Z,15.15
2019-05-26T03:27:30.778Z,15.30
2019-05-26T03:28:30.751Z,15.26
2019-05-26T03:29:30.739Z,15.31
2019-05-26T03:30:30.794Z,15.27
2019-05-26T03:31:30.774Z,15.22
2019-05-26T03:32:30.766Z,15.23
2019-05-26T03:33:30.785Z,15.15
2019-05-26T03:34:30.773Z,15.14
2019-05-26T03:35:30.754Z,14.95
2019-05-26T03:36:30.773Z,14.99
2019-05-26T03:37:30.784Z,14.99
2019-05-26T03:38:30.757Z,15.06
2019-05-26T03:39:43.336Z,14.99
2019-05-26T03:40:30.771Z,14.98
2019-05-26T03:41:30.768Z,14.96
2019-05-26T03:42:30.801Z,14.48
2019-05-26T03:43:30.784Z,14.14
2019-05-26T03:44:30.739Z,14.41
2019-05-26T03:45:30.790Z,14.63
2019-05-26T03:46:30.781Z,14.77
2019-05-26T03:47:30.806Z,14.70
2019-05-26T03:48:30.808Z,15.00
2019-05-26T03:49:30.770Z,15.09
2019-05-26T03:50:30.744Z,14.80
2019-05-26T03:51:30.788Z,15.10
2019-05-26T03:52:30.790Z,15.06
2019-05-26T03:53:30.764Z,15.05
2019-05-26T03:54:30.808Z,15.19
2019-05-26T03:55:30.799Z,15.00
2019-05-26T03:56:30.766Z,15.31
2019-05-26T03:57:30.789Z,15.22
2019-05-26T03:58:30.781Z,15.09
2019-05-26T03:59:30.772Z,14.98
2019-05-26T04:00:30.809Z,14.91
2019-05-26T04:01:30.790Z,14.93
2019-05-26T04:02:30.754Z,14.98
2019-05-26T04:03:30.800Z,15.08
2019-05-26T04:04:30.810Z,15.00
2019-05-26T04:05:30.766Z,15.10
2019-05-26T04:06:30.809Z,15.14
2019-05-26T04:07:30.804Z,15.24
2019-05-26T04:08:30.763Z,15.16
2019-05-26T04:09:30.801Z,15.07
2019-05-26T04:10:30.765Z,15.30
2019-05-26T04:11:30.811Z,15.33
2019-05-26T04:12:30.825Z,15.36
2019-05-26T04:13:30.815Z,15.44
2019-05-26T04:14:30.807Z,15.47
2019-05-26T04:15:30.817Z,15.39
2019-05-26T04:16:30.796Z,15.36
2019-05-26T04:17:30.774Z,15.28
2019-05-26T04:18:30.834Z,15.39
2019-05-26T04:19:30.803Z,15.56
2019-05-26T04:20:30.798Z,15.42
2019-05-26T04:21:30.814Z,15.54
2019-05-26T04:22:30.805Z,15.45
2019-05-26T04:23:30.796Z,15.40
2019-05-26T04:24:30.838Z,15.51
2019-05-26T04:25:30.811Z,15.56
2019-05-26T04:26:30.862Z,15.60
2019-05-26T04:27:30.828Z,15.60
2019-05-26T04:28:30.800Z,15.61
2019-05-26T04:29:30.796Z,15.74
2019-05-26T04:30:30.835Z,15.86
2019-05-26T04:31:30.823Z,15.75
2019-05-26T04:32:30.786Z,15.79
2019-05-26T04:33:30.832Z,15.97
2019-05-26T04:34:30.797Z,15.99
2019-05-26T04:35:30.814Z,16.03
2019-05-26T04:36:30.842Z,16.07
2019-05-26T04:37:30.819Z,16.17
2019-05-26T04:38:30.822Z,16.22
2019-05-26T04:39:30.827Z,16.28
2019-05-26T04:40:30.807Z,15.99
2019-05-26T04:41:30.818Z,16.15
2019-05-26T04:42:30.846Z,16.28
2019-05-26T04:43:30.830Z,16.29
2019-05-26T04:44:30.780Z,16.41
2019-05-26T04:45:30.828Z,16.51
2019-05-26T04:46:30.821Z,16.48
2019-05-26T04:47:30.816Z,16.60
2019-05-26T04:48:30.846Z,16.73
2019-05-26T04:49:30.844Z,16.74
2019-05-26T04:50:30.824Z,16.71
2019-05-26T04:51:30.836Z,16.82
2019-05-26T04:52:30.819Z,16.91
2019-05-26T04:53:30.800Z,17.13
2019-05-26T04:54:30.853Z,17.08
2019-05-26T04:55:30.861Z,17.17
2019-05-26T04:56:30.821Z,17.29
2019-05-26T04:57:30.839Z,17.44
2019-05-26T04:58:30.822Z,17.48
2019-05-26T04:59:30.843Z,17.59
2019-05-26T05:00:30.855Z,17.71
2019-05-26T05:01:30.842Z,17.74
2019-05-26T05:02:30.820Z,17.78
2019-05-26T05:03:30.851Z,18.06
2019-05-26T05:04:30.825Z,18.35
2019-05-26T05:05:30.817Z,19.09
2019-05-26T05:06:30.865Z,19.52
2019-05-26T05:07:30.854Z,19.40
2019-05-26T05:08:30.832Z,19.75
2019-05-26T05:09:30.853Z,19.86
2019-05-26T05:10:41.956Z,20.23
2019-05-26T05:11:30.822Z,20.52
2019-05-26T05:12:30.859Z,20.71
2019-05-26T05:13:30.880Z,20.73
2019-05-26T05:14:30.832Z,21.00
2019-05-26T05:15:30.855Z,21.08
2019-05-26T05:16:30.848Z,21.29
2019-05-26T05:17:30.835Z,21.39
2019-05-26T05:18:30.865Z,21.84
2019-05-26T05:19:30.870Z,22.16
2019-05-26T05:20:30.845Z,22.48
2019-05-26T05:21:30.861Z,22.08
2019-05-26T05:22:30.856Z,21.88
2019-05-26T05:23:30.842Z,22.66
2019-05-26T05:24:30.893Z,22.87
2019-05-26T05:25:30.864Z,22.25
2019-05-26T05:26:30.863Z,22.82
2019-05-26T05:27:30.867Z,22.99
2019-05-26T05:28:30.846Z,22.69
2019-05-26T05:29:30.862Z,22.75
2019-05-26T05:30:30.877Z,22.67
2019-05-26T05:31:30.898Z,22.64
2019-05-26T05:32:32.888Z,22.72
2019-05-26T05:33:30.874Z,22.80
2019-05-26T05:34:30.855Z,22.89
2019-05-26T05:35:30.879Z,23.16
2019-05-26T05:36:30.871Z,23.14
2019-05-26T05:37:30.879Z,23.53
2019-05-26T05:38:30.856Z,23.65
2019-05-26T05:39:30.866Z,23.94
2019-05-26T05:40:30.857Z,24.26
2019-05-26T05:41:30.857Z,23.99
2019-05-26T05:42:30.907Z,23.79
2019-05-26T05:43:30.904Z,23.75
2019-05-26T05:44:30.856Z,23.30
2019-05-26T05:45:30.883Z,23.71
2019-05-26T05:46:30.886Z,23.92
2019-05-26T05:47:30.871Z,24.29
2019-05-26T05:48:30.920Z,24.55
2019-05-26T05:49:30.946Z,24.63
2019-05-26T05:50:30.874Z,24.27
2019-05-26T05:51:30.881Z,24.45
2019-05-26T05:52:30.876Z,24.72
2019-05-26T05:53:30.894Z,24.95
2019-05-26T05:54:30.897Z,24.92
2019-05-26T05:55:30.924Z,24.79
2019-05-26T05:56:30.869Z,24.93
2019-05-26T05:57:30.896Z,24.81
2019-05-26T05:58:30.865Z,25.45
2019-05-26T05:59:30.869Z,24.61
2019-05-26T06:00:30.916Z,25.06
2019-05-26T06:01:30.942Z,25.51
2019-05-26T06:02:30.900Z,25.80
2019-05-26T06:03:30.890Z,26.04
2019-05-26T06:04:30.875Z,25.58
2019-05-26T06:05:30.877Z,24.85
2019-05-26T06:06:30.936Z,25.39
2019-05-26T06:07:30.906Z,25.85
2019-05-26T06:08:30.889Z,25.95
2019-05-26T06:09:30.904Z,25.59
2019-05-26T06:10:30.891Z,25.69
2019-05-26T06:11:30.889Z,26.06
2019-05-26T06:12:30.923Z,25.99
2019-05-26T06:13:30.909Z,25.63
2019-05-26T06:14:30.900Z,25.48
2019-05-26T06:15:30.906Z,25.56
2019-05-26T06:16:30.886Z,25.78
2019-05-26T06:17:31.106Z,26.07
2019-05-26T06:18:30.921Z,26.31
2019-05-26T06:19:30.919Z,25.94
2019-05-26T06:20:30.898Z,26.13
2019-05-26T06:21:30.920Z,26.24
2019-05-26T06:22:30.896Z,26.29
2019-05-26T06:23:30.901Z,26.38
2019-05-26T06:24:30.936Z,25.97
2019-05-26T06:25:30.915Z,25.93
2019-05-26T06:26:30.905Z,24.73
2019-05-26T06:27:30.908Z,22.67
2019-05-26T06:28:30.905Z,21.50
2019-05-26T06:29:30.904Z,21.95
2019-05-26T06:30:30.947Z,22.28
2019-05-26T06:31:30.951Z,22.97
2019-05-26T06:32:30.933Z,22.51
2019-05-26T06:33:30.968Z,23.22
2019-05-26T06:34:30.987Z,23.74
2019-05-26T06:35:32.817Z,24.18
2019-05-26T06:36:31.032Z,22.70
2019-05-26T06:37:30.993Z,23.85
2019-05-26T06:38:31.078Z,23.99
2019-05-26T06:39:31.047Z,24.05
2019-05-26T06:40:31.036Z,24.73
2019-05-26T06:41:33.766Z,25.42
2019-05-26T06:42:31.072Z,25.90
2019-05-26T06:43:31.043Z,26.20
2019-05-26T06:44:31.042Z,26.74
2019-05-26T06:45:31.073Z,26.98
2019-05-26T06:46:31.071Z,27.21
2019-05-26T06:47:31.073Z,26.35
2019-05-26T06:48:31.096Z,26.30
2019-05-26T06:49:31.056Z,25.40
2019-05-26T06:50:31.073Z,24.82
2019-05-26T06:51:31.074Z,25.80
2019-05-26T06:52:31.064Z,26.21
2019-05-26T06:53:31.083Z,24.69
2019-05-26T06:54:31.104Z,23.97
2019-05-26T06:55:31.060Z,24.12
2019-05-26T06:56:31.071Z,23.86
2019-05-26T06:57:31.090Z,24.41
2019-05-26T06:58:31.058Z,24.42
2019-05-26T06:59:31.077Z,23.49
2019-05-26T07:00:31.099Z,23.34
2019-05-26T07:01:31.070Z,24.45
2019-05-26T07:02:31.062Z,25.25
2019-05-26T07:03:31.081Z,26.06
2019-05-26T07:04:31.078Z,25.51
2019-05-26T07:05:31.106Z,24.83
2019-05-26T07:06:31.109Z,23.98
2019-05-26T07:07:31.097Z,24.51
2019-05-26T07:08:31.080Z,24.61
2019-05-26T07:09:31.095Z,25.76
2019-05-26T07:10:31.075Z,26.65
2019-05-26T07:11:31.136Z,24.94
2019-05-26T07:12:31.114Z,24.41
2019-05-26T07:13:31.088Z,24.44
2019-05-26T07:14:31.096Z,24.56
2019-05-26T07:15:31.111Z,25.44
2019-05-26T07:16:38.120Z,26.47
2019-05-26T07:17:31.105Z,27.42
2019-05-26T07:18:31.093Z,28.11
2019-05-26T07:19:31.092Z,28.06
2019-05-26T07:20:31.076Z,28.13
2019-05-26T07:21:31.111Z,28.61
2019-05-26T07:22:31.125Z,27.91
2019-05-26T07:23:31.113Z,27.29
2019-05-26T07:24:31.138Z,25.13
2019-05-26T07:25:31.110Z,25.11
2019-05-26T07:26:31.074Z,24.63
2019-05-26T07:27:31.116Z,25.33
2019-05-26T07:28:31.096Z,26.14
2019-05-26T07:29:31.103Z,24.66
2019-05-26T07:30:31.130Z,25.81
2019-05-26T07:31:31.117Z,26.55
2019-05-26T07:32:31.109Z,26.31
2019-05-26T07:33:31.118Z,26.77
2019-05-26T07:34:31.111Z,27.34
2019-05-26T07:35:33.022Z,27.71
2019-05-26T07:36:31.147Z,28.43
2019-05-26T07:37:31.104Z,27.84
2019-05-26T07:38:31.116Z,27.37
2019-05-26T07:39:31.132Z,26.31
2019-05-26T07:40:31.126Z,25.79
2019-05-26T07:41:31.106Z,25.00
2019-05-26T07:42:31.161Z,24.69
2019-05-26T07:43:31.116Z,24.03
2019-05-26T07:44:31.143Z,24.48
2019-05-26T07:45:31.129Z,25.37
2019-05-26T07:46:31.115Z,26.29
2019-05-26T07:47:31.118Z,27.22
2019-05-26T07:48:34.877Z,27.49
2019-05-26T07:49:31.116Z,27.92
2019-05-26T07:50:31.122Z,28.59
2019-05-26T07:51:31.135Z,28.55
2019-05-26T07:52:31.130Z,26.12
2019-05-26T07:53:31.127Z,26.86
2019-05-26T07:54:31.147Z,26.16
2019-05-26T07:55:31.126Z,24.98
2019-05-26T07:56:31.145Z,26.64
2019-05-26T07:57:31.145Z,26.41
2019-05-26T07:58:31.107Z,26.62
2019-05-26T07:59:31.161Z,27.28
2019-05-26T08:00:31.163Z,27.37
2019-05-26T08:01:36.076Z,28.35
2019-05-26T08:02:31.148Z,28.90
2019-05-26T08:03:31.153Z,28.67
2019-05-26T08:04:31.147Z,27.89
2019-05-26T08:05:31.148Z,27.19
2019-05-26T08:06:31.183Z,26.32
2019-05-26T08:07:31.150Z,27.58
2019-05-26T08:08:31.145Z,28.35
2019-05-26T08:09:31.148Z,28.55
2019-05-26T08:10:31.137Z,29.12
2019-05-26T08:11:31.136Z,29.93
2019-05-26T08:12:31.189Z,28.67
2019-05-26T08:13:31.147Z,26.09
2019-05-26T08:14:31.150Z,26.70
2019-05-26T08:15:31.168Z,26.83
2019-05-26T08:16:31.554Z,26.58
2019-05-26T08:17:31.172Z,26.43
2019-05-26T08:18:31.191Z,28.07
2019-05-26T08:19:31.318Z,28.48
2019-05-26T08:20:31.158Z,25.47
2019-05-26T08:21:31.165Z,26.71
2019-05-26T08:22:31.145Z,26.37
2019-05-26T08:23:31.159Z,26.93
2019-05-26T08:24:31.189Z,27.25
2019-05-26T08:25:31.154Z,28.17
2019-05-26T08:26:31.170Z,28.33
2019-05-26T08:27:31.170Z,27.86
2019-05-26T08:28:31.155Z,27.94
2019-05-26T08:29:31.169Z,28.75
2019-05-26T08:30:31.195Z,28.24
2019-05-26T08:31:31.157Z,28.76
2019-05-26T08:32:31.162Z,28.61
2019-05-26T08:33:31.171Z,29.58
2019-05-26T08:34:31.156Z,25.91
2019-05-26T08:35:31.186Z,24.99
2019-05-26T08:36:31.189Z,26.22
2019-05-26T08:37:31.159Z,25.92
2019-05-26T08:38:31.187Z,26.54
2019-05-26T08:39:31.176Z,25.78
2019-05-26T08:40:31.163Z,27.40
2019-05-26T08:41:31.190Z,28.05
2019-05-26T08:42:43.807Z,26.45
2019-05-26T08:43:31.224Z,26.86
2019-05-26T08:44:31.203Z,25.88
2019-05-26T08:45:31.196Z,26.60
2019-05-26T08:46:31.185Z,27.22
2019-05-26T08:47:31.190Z,26.97
2019-05-26T08:48:31.211Z,26.68
2019-05-26T08:49:31.178Z,26.67
2019-05-26T08:50:34.262Z,27.46
2019-05-26T08:51:31.213Z,27.30
2019-05-26T08:52:31.185Z,27.30
2019-05-26T08:53:31.167Z,27.97
2019-05-26T08:54:31.232Z,25.82
2019-05-26T08:55:31.189Z,26.37
2019-05-26T08:56:31.175Z,26.77
2019-05-26T08:57:31.212Z,27.88
2019-05-26T08:58:31.184Z,27.96
2019-05-26T08:59:31.181Z,25.88
2019-05-26T09:00:31.232Z,26.26
2019-05-26T09:01:31.180Z,26.86
2019-05-26T09:02:31.195Z,27.80
2019-05-26T09:03:31.205Z,28.50
2019-05-26T09:04:31.194Z,26.81
2019-05-26T09:05:31.227Z,27.68
2019-05-26T09:06:31.245Z,28.54
2019-05-26T09:07:31.201Z,28.95
2019-05-26T09:08:31.211Z,28.93
2019-05-26T09:09:31.246Z,29.62
2019-05-26T09:10:31.201Z,30.00
2019-05-26T09:11:31.217Z,30.00
2019-05-26T09:12:31.233Z,30.11
2019-05-26T09:13:31.198Z,30.81
2019-05-26T09:14:31.196Z,31.28
2019-05-26T09:15:31.208Z,29.95
2019-05-26T09:16:31.198Z,27.05
2019-05-26T09:17:31.202Z,25.92
2019-05-26T09:18:31.229Z,27.35
2019-05-26T09:19:31.222Z,27.92
2019-05-26T09:20:31.226Z,27.34
2019-05-26T09:21:31.225Z,27.28
2019-05-26T09:22:31.228Z,28.34
2019-05-26T09:23:31.212Z,28.42
2019-05-26T09:24:31.249Z,29.07
2019-05-26T09:25:31.222Z,28.86
2019-05-26T09:26:31.226Z,28.92
2019-05-26T09:27:31.234Z,29.09
2019-05-26T09:28:31.224Z,28.45
2019-05-26T09:29:31.256Z,28.70
2019-05-26T09:30:31.264Z,29.36
2019-05-26T09:31:34.102Z,28.95
2019-05-26T09:32:31.234Z,29.44
2019-05-26T09:33:31.241Z,29.36
2019-05-26T09:34:31.246Z,27.82
2019-05-26T09:35:31.246Z,28.88
2019-05-26T09:36:31.260Z,30.22
2019-05-26T09:37:31.236Z,30.49
2019-05-26T09:38:31.241Z,31.43
2019-05-26T09:39:31.264Z,30.89
2019-05-26T09:40:31.244Z,29.81
2019-05-26T09:41:31.265Z,29.95
2019-05-26T09:42:31.259Z,30.66
2019-05-26T09:43:31.228Z,28.54
2019-05-26T09:44:31.229Z,26.82
2019-05-26T09:45:31.252Z,27.21
2019-05-26T09:46:31.253Z,28.25
2019-05-26T09:47:31.260Z,30.17
2019-05-26T09:48:31.260Z,30.71
2019-05-26T09:49:31.236Z,31.33
2019-05-26T09:50:31.255Z,31.68
2019-05-26T09:51:31.261Z,30.87
2019-05-26T09:52:31.295Z,30.55
2019-05-26T09:53:31.255Z,29.52
2019-05-26T09:54:31.274Z,30.10
2019-05-26T09:55:31.245Z,28.99
2019-05-26T09:56:31.263Z,28.61
2019-05-26T09:57:31.287Z,28.09
2019-05-26T09:58:31.252Z,28.28
2019-05-26T09:59:31.257Z,28.86
2019-05-26T10:00:31.256Z,29.20
2019-05-26T10:01:31.264Z,28.08
2019-05-26T10:02:31.277Z,29.65
2019-05-26T10:03:31.299Z,29.99
2019-05-26T10:04:31.263Z,30.08
2019-05-26T10:05:31.275Z,29.91
2019-05-26T10:06:31.298Z,29.85
2019-05-26T10:07:31.259Z,28.57
2019-05-26T10:08:31.281Z,29.25
2019-05-26T10:09:31.301Z,29.19
2019-05-26T10:10:31.276Z,26.05
2019-05-26T10:11:31.274Z,28.00
2019-05-26T10:12:31.290Z,29.27
2019-05-26T10:13:32.159Z,29.49
2019-05-26T10:14:31.295Z,29.83
2019-05-26T10:15:31.321Z,30.48
2019-05-26T10:16:31.276Z,30.97
2019-05-26T10:17:31.265Z,30.22
2019-05-26T10:18:31.289Z,30.53
2019-05-26T10:19:31.274Z,30.29
2019-05-26T10:20:31.302Z,28.95
2019-05-26T10:21:31.320Z,29.05
2019-05-26T10:22:31.281Z,30.62
2019-05-26T10:23:31.282Z,31.46
2019-05-26T10:24:31.299Z,30.79
2019-05-26T10:25:31.284Z,30.95
2019-05-26T10:26:31.293Z,30.81
2019-05-26T10:27:31.306Z,30.44
2019-05-26T10:28:31.289Z,30.35
2019-05-26T10:29:31.286Z,30.77
2019-05-26T10:30:31.303Z,31.13
2019-05-26T10:31:31.303Z,31.33
2019-05-26T10:32:31.295Z,30.61
2019-05-26T10:33:31.326Z,29.90
2019-05-26T10:34:31.290Z,29.59
2019-05-26T10:35:31.304Z,29.13
2019-05-26T10:36:31.314Z,28.82
2019-05-26T10:37:31.316Z,28.51
2019-05-26T10:38:31.336Z,28.30
2019-05-26T10:39:31.331Z,28.44
2019-05-26T10:40:31.290Z,28.25
2019-05-26T10:41:31.305Z,27.49
2019-05-26T10:42:31.318Z,26.13
2019-05-26T10:43:44.532Z,27.51
2019-05-26T10:44:31.342Z,28.07
2019-05-26T10:45:34.295Z,28.27
2019-05-26T10:46:31.302Z,29.00
2019-05-26T10:47:31.311Z,29.36
2019-05-26T10:48:31.334Z,30.23
2019-05-26T10:49:31.331Z,28.62
2019-05-26T10:50:31.312Z,27.76
2019-05-26T10:51:31.351Z,28.18
2019-05-26T10:52:31.315Z,27.80
2019-05-26T10:53:31.313Z,28.65
2019-05-26T10:54:31.337Z,28.65
2019-05-26T10:55:31.322Z,28.20
2019-05-26T10:56:31.338Z,28.24
2019-05-26T10:57:31.362Z,28.02
2019-05-26T10:58:31.327Z,28.67
2019-05-26T10:59:31.401Z,29.38
2019-05-26T11:00:33.090Z,30.56
2019-05-26T11:01:31.337Z,29.51
2019-05-26T11:02:31.352Z,30.05
2019-05-26T11:03:31.360Z,29.24
2019-05-26T11:04:31.325Z,28.33
2019-05-26T11:05:31.334Z,29.03
2019-05-26T11:06:31.341Z,29.37
2019-05-26T11:07:31.327Z,28.81
2019-05-26T11:08:31.355Z,29.72
2019-05-26T11:09:31.364Z,29.30
2019-05-26T11:10:31.331Z,29.16
2019-05-26T11:11:31.341Z,28.97
2019-05-26T11:12:31.356Z,29.54
2019-05-26T11:13:31.331Z,27.88
2019-05-26T11:14:31.360Z,27.79
2019-05-26T11:15:31.369Z,27.64
2019-05-26T11:16:31.352Z,28.92
2019-05-26T11:17:31.346Z,29.08
2019-05-26T11:18:31.364Z,30.32
2019-05-26T11:19:31.349Z,30.66
2019-05-26T11:20:31.391Z,30.38
2019-05-26T11:21:31.393Z,30.46
2019-05-26T11:22:31.350Z,28.21
2019-05-26T11:23:31.384Z,26.44
2019-05-26T11:24:31.366Z,28.12
2019-05-26T11:25:31.348Z,29.29
2019-05-26T11:26:31.371Z,28.54
2019-05-26T11:27:31.380Z,30.14
2019-05-26T11:28:31.372Z,29.54
2019-05-26T11:29:31.338Z,30.11
2019-05-26T11:30:31.381Z,30.49
2019-05-26T11:31:31.378Z,31.73
2019-05-26T11:32:31.381Z,32.41
2019-05-26T11:33:31.408Z,33.61
2019-05-26T11:34:31.380Z,34.38
2019-05-26T11:35:31.375Z,32.31
2019-05-26T11:36:31.394Z,32.08
2019-05-26T11:37:31.363Z,28.86
2019-05-26T11:38:33.732Z,30.29
2019-05-26T11:39:31.439Z,32.32
2019-05-26T11:40:31.408Z,30.62
2019-05-26T11:41:31.411Z,30.20
2019-05-26T11:42:31.439Z,31.85
2019-05-26T11:43:31.444Z,33.26
2019-05-26T11:44:31.495Z,32.05
2019-05-26T11:45:31.494Z,29.42
2019-05-26T11:46:31.494Z,30.75
2019-05-26T11:47:31.493Z,31.50
2019-05-26T11:48:31.499Z,31.24
2019-05-26T11:49:31.526Z,30.75
2019-05-26T11:50:31.552Z,31.35
2019-05-26T11:51:31.575Z,32.14
2019-05-26T11:52:31.557Z,32.50
2019-05-26T11:53:31.566Z,32.97
2019-05-26T11:54:34.447Z,33.48
2019-05-26T11:55:31.572Z,32.81
2019-05-26T11:56:31.596Z,28.16
2019-05-26T11:57:31.626Z,29.69
2019-05-26T11:58:31.577Z,30.88
2019-05-26T11:59:31.590Z,31.35
2019-05-26T12:00:31.600Z,32.16
2019-05-26T12:01:31.591Z,30.05
2019-05-26T12:02:31.584Z,30.72
2019-05-26T12:03:31.630Z,30.71
2019-05-26T12:04:31.568Z,30.67
2019-05-26T12:05:31.604Z,30.53
2019-05-26T12:06:31.604Z,29.43
2019-05-26T12:07:31.578Z,29.36
2019-05-26T12:08:31.612Z,29.64
2019-05-26T12:09:31.641Z,28.49
2019-05-26T12:10:31.607Z,28.67
2019-05-26T12:11:31.594Z,29.75
2019-05-26T12:12:31.610Z,29.49
2019-05-26T12:13:31.612Z,29.80
2019-05-26T12:14:35.299Z,30.42
2019-05-26T12:15:31.640Z,31.08
2019-05-26T12:16:31.586Z,29.83
2019-05-26T12:17:31.609Z,30.16
2019-05-26T12:18:31.612Z,29.68
2019-05-26T12:19:31.609Z,29.22
2019-05-26T12:20:31.632Z,30.80
2019-05-26T12:21:31.649Z,31.15
2019-05-26T12:22:31.606Z,30.80
2019-05-26T12:23:32.062Z,32.46
2019-05-26T12:24:31.623Z,30.77
2019-05-26T12:25:31.612Z,28.77
2019-05-26T12:26:31.609Z,28.90
2019-05-26T12:27:31.646Z,30.66
2019-05-26T12:28:31.608Z,29.11
2019-05-26T12:29:31.623Z,29.38
2019-05-26T12:30:31.630Z,29.40
2019-05-26T12:31:31.624Z,29.99
2019-05-26T12:32:31.644Z,30.13
2019-05-26T12:33:31.645Z,28.54
2019-05-26T12:34:31.629Z,28.90
2019-05-26T12:35:31.644Z,29.19
2019-05-26T12:36:31.654Z,30.29
2019-05-26T12:37:31.658Z,30.95
2019-05-26T12:38:31.650Z,31.48
2019-05-26T12:39:31.664Z,31.12
2019-05-26T12:40:31.637Z,31.27
2019-05-26T12:41:34.977Z,31.49
2019-05-26T12:42:31.659Z,31.31
2019-05-26T12:43:31.651Z,30.33
2019-05-26T12:44:31.645Z,29.06
2019-05-26T12:45:31.673Z,27.92
2019-05-26T12:46:31.634Z,28.16
2019-05-26T12:47:31.645Z,28.45
2019-05-26T12:48:31.652Z,29.27
2019-05-26T12:49:31.659Z,30.33
2019-05-26T12:50:31.648Z,30.39
2019-05-26T12:51:31.677Z,30.20
2019-05-26T12:52:31.647Z,29.94